createdAt,value
2023-01-23T00:00:58.357Z,46.30
2023-01-23T00:03:26.013Z,46.00
2023-01-23T00:06:04.295Z,39.60
2023-01-23T00:08:31.698Z,38.10
2023-01-23T00:10:59.104Z,39.70
2023-01-23T00:13:26.574Z,48.00
2023-01-23T00:15:54.352Z,79.30
2023-01-23T00:18:21.921Z,80.70
2023-01-23T00:20:49.268Z,75.20
2023-01-23T00:23:16.608Z,101.00
2023-01-23T00:25:44.095Z,114.30
2023-01-23T00:28:11.529Z,108.00
2023-01-23T00:30:38.939Z,145.20
2023-01-23T00:33:06.368Z,98.80
2023-01-23T00:35:37.500Z,93.30
2023-01-23T00:38:04.865Z,99.60
2023-01-23T00:40:32.213Z,149.20
2023-01-23T00:42:59.921Z,153.90
2023-01-23T00:45:27.515Z,89.50
2023-01-23T00:47:54.915Z,83.70
2023-01-23T00:50:22.355Z,140.10
2023-01-23T00:52:49.762Z,101.90
2023-01-23T00:55:17.813Z,76.00
2023-01-23T00:57:45.109Z,115.70
2023-01-23T01:00:12.786Z,84.70
2023-01-23T01:02:40.146Z,106.20
2023-01-23T01:05:07.897Z,94.00
2023-01-23T01:07:35.282Z,122.10
2023-01-23T01:10:02.743Z,67.10
2023-01-23T01:12:30.269Z,57.30
2023-01-23T01:14:57.937Z,36.60
2023-01-23T01:17:25.479Z,40.90
2023-01-23T01:19:53.067Z,57.00
2023-01-23T01:22:20.523Z,54.80
2023-01-23T01:24:48.303Z,55.70
2023-01-23T01:27:15.648Z,54.90
2023-01-23T01:29:42.900Z,36.20
2023-01-23T01:32:10.244Z,49.20
2023-01-23T01:34:37.549Z,46.50
2023-01-23T01:37:04.988Z,46.40
2023-01-23T01:39:32.370Z,39.70
2023-01-23T01:41:59.594Z,36.70
2023-01-23T01:44:28.153Z,49.90
2023-01-23T01:46:55.791Z,60.40
2023-01-23T01:49:31.124Z,47.60
2023-01-23T01:52:04.980Z,45.80
2023-01-23T01:54:43.999Z,46.50
2023-01-23T01:57:16.457Z,49.20
2023-01-23T01:59:46.709Z,101.20
2023-01-23T02:02:17.268Z,69.10
2023-01-23T02:04:48.674Z,108.80
2023-01-23T02:07:26.481Z,64.30
2023-01-23T02:09:54.324Z,93.20
2023-01-23T02:12:21.652Z,125.50
2023-01-23T02:14:49.140Z,189.20
2023-01-23T02:17:16.552Z,110.80
2023-01-23T02:20:03.272Z,109.70
2023-01-23T02:22:34.782Z,133.20
2023-01-23T02:25:29.418Z,161.60
2023-01-23T02:27:57.824Z,124.10
2023-01-23T02:30:25.335Z,109.00
2023-01-23T02:32:53.129Z,118.60
2023-01-23T02:35:24.599Z,81.10
2023-01-23T02:37:52.839Z,65.00
2023-01-23T02:40:22.482Z,90.90
2023-01-23T02:42:50.729Z,99.50
2023-01-23T02:45:18.648Z,80.80
2023-01-23T02:47:46.435Z,92.40
2023-01-23T02:50:13.961Z,100.30
2023-01-23T02:52:41.525Z,73.20
2023-01-23T02:55:09.183Z,71.80
2023-01-23T02:57:36.671Z,54.40
2023-01-23T03:00:16.999Z,64.60
2023-01-23T03:02:44.694Z,74.60
2023-01-23T03:05:12.039Z,101.00
2023-01-23T03:07:39.604Z,71.90
2023-01-23T03:10:10.424Z,75.70
2023-01-23T03:12:43.577Z,56.40
2023-01-23T03:15:11.645Z,42.10
2023-01-23T03:17:39.059Z,52.20
2023-01-23T03:20:07.624Z,44.80
2023-01-23T03:22:35.084Z,53.10
2023-01-23T03:25:02.767Z,84.60
2023-01-23T03:27:30.623Z,106.80
2023-01-23T03:30:13.497Z,73.40
2023-01-23T03:32:41.177Z,70.30
2023-01-23T03:35:10.521Z,56.50
2023-01-23T03:37:37.991Z,44.70
2023-01-23T03:40:24.818Z,39.20
2023-01-23T03:42:55.084Z,42.10
2023-01-23T03:45:26.403Z,37.40
2023-01-23T03:47:53.873Z,48.60
2023-01-23T03:50:21.761Z,55.60
2023-01-23T03:52:49.608Z,41.70
2023-01-23T03:55:17.114Z,62.50
2023-01-23T03:57:45.131Z,45.50
2023-01-23T04:00:25.442Z,50.40
2023-01-23T04:02:58.265Z,49.50
2023-01-23T04:05:25.622Z,46.30
2023-01-23T04:07:53.149Z,43.60
2023-01-23T04:10:20.898Z,49.30
2023-01-23T04:12:52.868Z,49.50
2023-01-23T04:15:20.324Z,66.80
2023-01-23T04:17:47.678Z,55.30
2023-01-23T04:20:15.307Z,45.50
2023-01-23T04:22:43.870Z,40.30
2023-01-23T04:25:11.568Z,39.90
2023-01-23T04:27:39.039Z,32.00
2023-01-23T04:30:07.755Z,22.00
2023-01-23T04:32:35.529Z,26.50
2023-01-23T04:35:03.188Z,36.50
2023-01-23T04:37:30.692Z,22.90
2023-01-23T04:39:58.353Z,29.20
2023-01-23T04:42:26.561Z,31.90
2023-01-23T04:45:08.559Z,30.80
2023-01-23T04:47:44.671Z,31.80
2023-01-23T04:50:12.309Z,22.70
2023-01-23T04:52:41.528Z,34.70
2023-01-23T04:55:09.420Z,30.90
2023-01-23T04:57:36.937Z,30.50
2023-01-23T05:00:14.747Z,30.30
2023-01-23T05:02:42.389Z,31.00
2023-01-23T05:05:09.996Z,28.10
2023-01-23T05:07:37.988Z,20.00
2023-01-23T05:12:37.756Z,16.70
2023-01-23T05:15:05.658Z,20.80
2023-01-23T08:31:43.187Z,62.10
2023-01-23T08:34:10.845Z,63.70
2023-01-23T08:36:38.274Z,56.40
2023-01-23T08:39:05.681Z,52.50
2023-01-23T08:41:33.060Z,53.60
2023-01-23T08:44:01.993Z,49.10
2023-01-23T08:46:29.516Z,53.50
2023-01-23T08:48:57.337Z,38.90
2023-01-23T08:51:25.781Z,51.50
2023-01-23T08:53:53.837Z,48.40
2023-01-23T08:56:22.507Z,48.20
2023-01-23T08:58:50.592Z,58.40
2023-01-23T09:01:27.362Z,50.50
2023-01-23T09:03:55.228Z,61.00
2023-01-23T09:06:23.295Z,55.70
2023-01-23T09:08:50.813Z,51.60
2023-01-23T09:11:18.407Z,68.30
2023-01-23T09:13:47.058Z,65.50
2023-01-23T09:16:14.581Z,45.80
2023-01-23T09:18:42.029Z,51.70
2023-01-23T09:21:11.565Z,53.70
2023-01-23T09:23:39.011Z,56.00
2023-01-23T09:26:11.250Z,48.70
2023-01-23T09:31:08.490Z,48.80
2023-01-23T09:33:36.143Z,46.30
2023-01-23T09:36:04.440Z,44.10
2023-01-23T09:38:33.705Z,50.30
2023-01-23T09:41:07.271Z,49.40
2023-01-23T09:43:52.130Z,55.50
2023-01-23T09:46:44.747Z,50.00
2023-01-23T09:49:18.445Z,45.00
2023-01-23T09:51:58.227Z,40.40
2023-01-23T09:54:46.707Z,45.00
2023-01-23T09:57:25.991Z,36.10
2023-01-23T10:00:11.522Z,40.40
2023-01-23T10:02:38.955Z,45.10
2023-01-23T10:05:13.947Z,40.50
2023-01-23T10:07:46.180Z,37.30
2023-01-23T10:10:55.572Z,36.00
2023-01-23T10:13:49.052Z,37.50
2023-01-23T10:16:50.451Z,41.70
2023-01-23T10:19:18.489Z,43.30
2023-01-23T10:21:52.672Z,36.40
2023-01-23T10:24:45.678Z,40.20
2023-01-23T10:27:19.314Z,44.20
2023-01-23T10:30:00.573Z,41.30
2023-01-23T10:32:30.276Z,43.10
2023-01-23T10:35:03.441Z,39.90
2023-01-23T10:37:31.612Z,39.30
2023-01-23T10:40:11.843Z,44.20
2023-01-23T10:42:39.340Z,45.20
2023-01-23T10:45:07.582Z,41.40
2023-01-23T10:47:37.056Z,41.60
2023-01-23T10:50:06.509Z,49.00
2023-01-23T10:52:37.879Z,59.60
2023-01-23T10:55:11.907Z,61.70
2023-01-23T10:57:50.342Z,52.20
2023-01-23T11:00:28.241Z,58.10
2023-01-23T11:02:55.867Z,60.10
2023-01-23T11:05:54.717Z,49.30
2023-01-23T11:08:27.620Z,61.00
2023-01-23T11:10:57.217Z,56.60
2023-01-23T11:13:31.331Z,64.10
2023-01-23T11:15:59.134Z,54.50
2023-01-23T11:18:34.723Z,44.40
2023-01-23T11:21:02.262Z,39.70
2023-01-23T11:23:29.792Z,42.20
2023-01-23T11:25:57.291Z,42.40
2023-01-23T11:28:34.271Z,40.40
2023-01-23T11:31:15.876Z,41.60
2023-01-23T11:33:55.307Z,42.90
2023-01-23T11:36:52.559Z,62.70
2023-01-23T11:39:44.223Z,59.60
2023-01-23T11:42:11.857Z,45.60
2023-01-23T11:44:45.963Z,47.50
2023-01-23T11:47:30.879Z,44.90
2023-01-23T11:50:07.747Z,39.60
2023-01-23T11:52:36.694Z,40.90
2023-01-23T11:55:13.174Z,37.80
2023-01-23T11:57:46.767Z,41.70
2023-01-23T12:00:34.355Z,42.10
2023-01-23T12:03:25.907Z,41.50
2023-01-23T12:09:17.745Z,36.00
2023-01-23T12:12:15.916Z,41.10
2023-01-23T12:15:18.984Z,38.70
2023-01-23T12:18:08.657Z,36.80
2023-01-23T12:20:42.304Z,33.20
2023-01-23T12:23:16.931Z,45.60
2023-01-23T12:26:14.680Z,41.50
2023-01-23T12:29:12.474Z,43.10
2023-01-23T12:31:52.773Z,46.80
2023-01-23T12:34:48.476Z,33.20
2023-01-23T12:37:35.069Z,35.50
2023-01-23T12:40:23.936Z,42.40
2023-01-23T12:42:51.655Z,34.00
2023-01-23T12:45:24.374Z,40.10
2023-01-23T12:48:13.090Z,37.00
2023-01-23T12:50:56.491Z,42.00
2023-01-23T12:53:24.267Z,44.70
2023-01-23T12:56:15.242Z,43.50
2023-01-23T12:58:51.781Z,40.20
2023-01-23T13:01:51.152Z,41.00
2023-01-23T13:04:27.819Z,49.80
2023-01-23T13:07:00.795Z,49.20
2023-01-23T13:10:08.684Z,42.10
2023-01-23T13:12:36.173Z,41.30
2023-01-23T13:15:38.739Z,44.90
2023-01-23T17:19:41.907Z,74.30
2023-01-23T17:22:22.112Z,95.90
2023-01-23T17:24:51.517Z,102.10
2023-01-23T17:27:21.689Z,78.90
2023-01-23T17:29:51.144Z,86.20
2023-01-23T17:32:29.722Z,85.20
2023-01-23T17:35:01.724Z,72.70
2023-01-23T17:37:32.360Z,64.30
2023-01-23T17:40:02.131Z,74.50
2023-01-23T17:42:31.643Z,77.50
2023-01-23T17:45:00.831Z,71.30
2023-01-23T17:51:54.943Z,73.60
2023-01-23T17:54:24.189Z,70.00
2023-01-23T17:56:54.929Z,70.10
2023-01-23T17:59:24.259Z,67.30
2023-01-23T18:01:53.574Z,68.50
2023-01-23T18:04:26.239Z,60.80
2023-01-23T18:06:55.270Z,69.30
2023-01-23T18:09:26.708Z,59.80
2023-01-23T18:11:56.076Z,50.60
2023-01-23T18:14:47.534Z,55.90
2023-01-23T18:17:33.816Z,41.60
2023-01-23T18:20:03.285Z,46.40
2023-01-23T18:22:33.397Z,44.10
2023-01-23T18:25:03.512Z,40.40
2023-01-23T18:27:33.225Z,54.60
2023-01-23T18:30:26.982Z,45.90
2023-01-23T18:33:02.212Z,42.00
2023-01-23T18:36:03.255Z,48.70
2023-01-23T18:38:59.940Z,52.30
2023-01-23T18:41:29.469Z,66.00
2023-01-23T18:44:08.126Z,61.50
2023-01-23T18:46:38.212Z,67.90
2023-01-23T18:49:07.492Z,68.00
2023-01-23T18:51:47.484Z,70.00
2023-01-23T18:54:28.822Z,55.50
2023-01-23T18:57:07.924Z,62.20
2023-01-23T18:59:46.205Z,73.10
2023-01-23T19:02:31.684Z,60.10
2023-01-23T19:05:16.365Z,69.00
2023-01-23T19:07:45.993Z,72.80
2023-01-23T19:10:23.276Z,67.60
2023-01-23T19:13:14.320Z,115.90
2023-01-23T19:15:49.271Z,97.90
2023-01-23T19:18:59.718Z,150.70
2023-01-23T19:21:38.642Z,121.20
2023-01-23T19:24:10.376Z,154.10
2023-01-23T19:26:41.021Z,127.60
2023-01-23T19:29:26.154Z,88.30
2023-01-23T19:32:09.988Z,55.70
2023-01-23T19:34:39.168Z,75.10
2023-01-23T19:37:08.535Z,62.70
2023-01-23T19:39:38.397Z,61.00
2023-01-23T19:42:13.107Z,42.90
2023-01-23T19:44:42.260Z,42.10
2023-01-23T19:47:11.495Z,41.60
2023-01-23T19:49:41.156Z,40.40
2023-01-23T19:52:13.877Z,54.50
2023-01-23T19:54:42.956Z,62.80
2023-01-23T19:57:13.777Z,96.60
2023-01-23T19:59:42.844Z,56.00
2023-01-23T20:02:19.826Z,63.60
2023-01-23T20:04:49.633Z,64.00
2023-01-23T20:07:18.783Z,67.80
2023-01-23T20:09:47.931Z,90.10
2023-01-23T20:12:18.191Z,75.00
2023-01-23T20:14:47.255Z,80.90
2023-01-23T20:17:16.206Z,123.50
2023-01-23T20:19:45.287Z,140.60
2023-01-23T20:22:15.318Z,131.20
2023-01-23T20:27:15.956Z,136.90
2023-01-23T20:29:45.421Z,167.90
2023-01-23T20:32:15.397Z,121.20
2023-01-23T20:34:44.407Z,130.20
2023-01-23T20:37:13.682Z,97.70
2023-01-23T20:39:44.994Z,98.20
2023-01-23T20:42:15.335Z,113.80
2023-01-23T20:44:46.840Z,116.10
2023-01-23T20:47:17.702Z,82.90
2023-01-23T20:49:47.588Z,97.20
2023-01-23T20:52:36.029Z,70.30
2023-01-23T20:55:05.531Z,78.60
2023-01-23T20:57:54.167Z,71.70
2023-01-23T21:00:23.389Z,72.00
2023-01-23T21:02:53.370Z,72.80
2023-01-23T21:05:23.230Z,72.60
2023-01-23T21:07:53.178Z,89.30
2023-01-23T21:10:22.537Z,82.40
2023-01-23T21:12:53.426Z,67.60
2023-01-23T21:15:23.064Z,64.10
2023-01-23T21:17:52.781Z,48.70
2023-01-23T21:20:22.822Z,53.20
2023-01-23T21:22:56.758Z,58.20
2023-01-23T21:25:27.265Z,66.70
2023-01-23T21:27:56.221Z,45.30
2023-01-23T21:30:24.899Z,45.70
2023-01-23T21:32:53.801Z,51.60
2023-01-23T21:35:23.238Z,44.60
2023-01-23T21:37:52.633Z,45.20
2023-01-23T21:40:21.926Z,41.90
2023-01-23T21:42:50.935Z,43.90
2023-01-23T21:45:26.230Z,49.60
2023-01-23T21:47:55.397Z,40.80
2023-01-23T21:50:24.317Z,53.90
2023-01-23T21:52:53.779Z,49.70
2023-01-23T21:55:23.548Z,48.60
2023-01-23T21:57:52.491Z,45.20
2023-01-23T22:00:53.985Z,51.70
2023-01-23T22:03:23.268Z,55.10
2023-01-23T22:05:52.990Z,51.10
2023-01-23T22:08:22.523Z,57.50
2023-01-23T22:10:51.865Z,51.70
2023-01-23T22:13:20.941Z,54.50
2023-01-23T22:15:49.782Z,55.20
2023-01-23T22:18:19.893Z,57.10
2023-01-23T22:20:56.630Z,57.00
2023-01-23T22:23:25.545Z,53.10
2023-01-23T22:25:59.368Z,50.30
2023-01-23T22:28:29.656Z,63.50
2023-01-23T22:30:58.436Z,54.80
2023-01-23T22:33:39.509Z,45.20
2023-01-23T22:36:11.209Z,39.90
2023-01-23T22:38:40.262Z,40.30
2023-01-23T22:41:12.539Z,42.80
2023-01-23T22:43:43.305Z,44.00
2023-01-23T22:46:16.698Z,47.30
2023-01-23T22:48:45.484Z,41.00
2023-01-23T22:51:28.643Z,37.40
2023-01-23T22:53:58.250Z,43.20
2023-01-23T22:56:27.485Z,37.90
2023-01-23T22:58:56.648Z,39.40
2023-01-23T23:01:27.425Z,37.40
2023-01-23T23:03:58.074Z,35.40
2023-01-23T23:06:27.308Z,40.80
2023-01-23T23:08:58.042Z,38.90
2023-01-23T23:11:27.822Z,34.30
2023-01-23T23:13:57.320Z,37.40
2023-01-23T23:16:28.123Z,46.40
2023-01-23T23:18:58.886Z,38.00
2023-01-23T23:21:30.521Z,38.40
2023-01-23T23:24:00.355Z,43.90
2023-01-23T23:26:30.253Z,40.70
2023-01-23T23:28:59.894Z,32.70
2023-01-23T23:31:29.158Z,35.30
2023-01-23T23:33:58.250Z,36.20
2023-01-23T23:36:27.219Z,32.80
2023-01-23T23:38:56.218Z,32.10
2023-01-23T23:41:25.234Z,42.80
2023-01-23T23:43:57.890Z,38.90
2023-01-23T23:46:26.680Z,38.30
2023-01-23T23:48:55.452Z,37.10
2023-01-23T23:51:26.792Z,34.80
2023-01-23T23:53:55.813Z,37.20
2023-01-23T23:56:27.655Z,38.20
2023-01-23T23:58:56.658Z,38.00
